Mackay Mo, Queensland

2:10 PM AEST on September 03, 2015 (GMT +1000)
Andergrove | | Change Station
CLOSE
Current Station
Personal Weather Station
Location: Andergrove, QUEENSLAND
Elevation: 36 ft
Nearby Weather Stations

Elev 36 ft 21.11 °S, 149.18 °E | Updated 2 seconds ago

Clear
Clear
87.1 °F
Feels Like 85 °F
N
4.6
Wind Variable Wind from SE
Gusts 4.6 mph

Today
High -- | Low -- °F
--% Chance of Precip.
Yesterday
High -- | Low -- °F
Precip. -- in
6:11 AM 5:54 PM
Waning Gibbous, 74% visible
Pressure 29.95 in
Visibility 6.2 miles
Clouds
Heat Index 85 °F
Dew Point 52 °F
Humidity 30%
Rainfall 0.00 in
Snow Depth Not available.
UV Not available.
Pollen Not available.
Air Quality Not available.
Flu Activity Not available.
METAR YBHM 030400Z AUTO 33026KT 9999 // NCD 25/20 Q1014
Pressure 29.95 in
Visibility 6.2 miles
Clouds
Heat Index 85 °F
Dew Point 52 °F
Humidity 30%
Rainfall 0.00 in
Snow Depth Not available.
UV Not available.
Pollen Not available.
Air Quality Not available.
Flu Activity Not available.
METAR YBHM 030400Z AUTO 33026KT 9999 // NCD 25/20 Q1014

10-Day Weather Forecast

×

Almanac

Astronomy

Sep. 03, 2015 Rise Set
Actual Time
Civil Twilight
Nautical Twilight
Astronomical Twilight
Moon
Length of Visible Light
Length of Day
Tomorrow will be .
, % of the Moon is Illuminated

Today's Extremes

Country Highs Country Lows

Community

WunderPhotos

Upload Photos

1,851,910 photos uploaded!

WunderBlogs® & News

Nearby

Air Quality

  Air Quality AQ Index Pollutant
Not available.

Snow Depth

Station Depth Elevation

Earthquake Activity

City Distance Mag. Time & Date
Minimum magnitude displayed is 2.5.

Coastal Water Temperatures

Place Temperature

Stations

Nearby Weather Stations

Station Location Temp. Windchill Dew Point Humidity Wind Precip. Elev Updated Type